Aviation Digital Data Service (ADDS)

Output produced by METARs form (1059 UTC 19 February 2019)
found at http://www.aviationweather.gov/metar/data/
 
Forecast for: ESKN (SKAVSTA/STOCKHO , SE)
Text: TAF ESKN 190530Z 1906/2006 22007KT 6000 BKN045
Forecast period: 0600 UTC 19 February 2019 to 0000 UTC 20 February 2019
Forecast type: FROM: standard forecast or significant change
Winds: from the SW (220 degrees) at 8 MPH (7 knots; 3.6 m/s)
Visibility: 4 miles (6 km)
Ceiling: 4500 feet AGL
Clouds: broken clouds at 4500 feet AGL
Weather: no significant weather forecast for this period
Text: PROB40 1906/1910 4000 RA BR BKN014
Forecast period: 0600 to 1000 UTC 19 February 2019
Forecast type: PROBABLE: 40 percent likelihood of the following during this time
Visibility: 2.49 miles (4.01 km)
Ceiling: 1400 feet AGL
Clouds: broken clouds at 1400 feet AGL
Weather: RA BR  (moderate rain, mist)
Text: BECMG 2000/2002 30010KT
Forecast period: 0000 to 0600 UTC 20 February 2019
Forecast type: BECOMING: Conditions expected to become as follows by 0200 UTC 20 February 2019
Winds: from the WNW (300 degrees) at 12 MPH (10 knots; 5.1 m/s)
Visibility: 4 miles (6 km)
Ceiling: 4500 feet AGL
Clouds: broken clouds at 4500 feet AGL
Weather: no significant weather forecast for this period